Carnival Pride — H3VU — position and weather

sailwx.info

Track history (hours):
 
Tides and Currents Weather Stations Pressure Air Temp Water Temp Dewpoint Dewpoint Depression Visibility Wind Speed Wind Dir Waves Ship Positions

Carnival Pride

Operator: Carnival Cruise Lines

Last reported at 2014-Sep-29 21:25 UTC. Time now 2014-Oct-01 14:27 UTC.
Position N 33°52' W 076°54'.

Type: Ship. MMSI: 354215000.

Date/timePositionNaut miles runAvg speedWind from/ knotsBaromVisibWave heightAir tempDewpointWater temp
2014-Sep-29 21:25N 33°52' W 076°54'6416.5
2014-Sep-29 17:31N 34°34' W 075°56'10114.5
2014-Sep-29 10:33N 36°11' W 075°20'1716.9
2014-Sep-29 09:33N 36°25' W 075°30'1616.4
2014-Sep-29 08:33N 36°40' W 075°40'1715.7
2014-Sep-29 07:30N 36°52' W 075°53'1414.7
2014-Sep-29 06:33N 37°03' W 076°05'1616.0
2014-Sep-29 05:32N 37°19' W 076°06'1816.4
2014-Sep-29 04:25N 37°37' W 076°06'1517.6
2014-Sep-29 03:33N 37°53' W 076°09'1919.1
2014-Sep-29 02:33N 38°11' W 076°14'1919.4
2014-Sep-29 01:33N 38°29' W 076°24'1817.9
2014-Sep-29 00:33N 38°47' W 076°25'1616.2
2014-Sep-28 23:33N 39°03' W 076°23'1111.1
2014-Sep-28 22:33N 39°12' W 076°31'5 4.9
2014-Sep-28 21:32N 39°16' W 076°36'0 0.0
2014-Sep-28 20:31N 39°16' W 076°36'0 0.0
2014-Sep-28 19:28N 39°16' W 076°36'0 0.0
2014-Sep-28 18:33N 39°16' W 076°36'0 0.0
2014-Sep-28 17:33N 39°16' W 076°36'0 0.0
2014-Sep-28 16:32N 39°16' W 076°36'0 0.0
2014-Sep-28 15:32N 39°16' W 076°36'0 0.0
2014-Sep-28 14:28N 39°16' W 076°36'0 0.0
2014-Sep-28 13:31N 39°16' W 076°36'2 1.7
2014-Sep-28 12:33N 39°15' W 076°34'1111.4
2014-Sep-28 11:33N 39°07' W 076°24'1716.9
2014-Sep-28 10:33N 38°50' W 076°24'4118.9
2014-Sep-28 08:22N 38°10' W 076°14'5118.2
2014-Sep-28 05:34N 37°19' W 076°06'1817.4
2014-Sep-28 04:32N 37°01' W 076°03'1816.6
2014-Sep-28 03:28N 36°50' W 075°46'3820.1
2014-Sep-28 01:33N 36°16' W 075°23'9418.5
2014-Sep-27 20:28N 34°43' W 075°42'2519.8
2014-Sep-27 19:13N 34°25' W 076°03'5319.9
2014-Sep-27 16:33N 33°48' W 076°49'40120.9
2014-Sep-26 21:25N 27°32' W 079°31'2022.8
2014-Sep-26 20:32N 27°14' W 079°22'  
2014-Sep-22 07:27N 36°42' W 075°42'1718.2
2014-Sep-22 06:31N 36°55' W 075°56'1716.3
2014-Sep-22 05:30N 37°08' W 076°09'7717.4
2014-Sep-22 01:05N 38°25' W 076°21'1019.0
2014-Sep-22 00:34N 38°34' W 076°26'1918.6
2014-Sep-21 23:34N 38°52' W 076°24'1515.2
2014-Sep-21 22:33N 39°07' W 076°24'1211.7
2014-Sep-21 21:33N 39°15' W 076°35'1 1.1
2014-Sep-21 20:33N 39°16' W 076°36'0 0.0
2014-Sep-21 19:33N 39°16' W 076°36'0 0.0
2014-Sep-21 18:32N 39°16' W 076°36'0 0.0
2014-Sep-21 17:32N 39°16' W 076°36'0 0.0
2014-Sep-21 16:31N 39°16' W 076°36'0 0.0
2014-Sep-21 15:31N 39°16' W 076°36'0 0.0
2014-Sep-21 14:34N 39°16' W 076°36'0 0.1
2014-Sep-21 13:33N 39°16' W 076°36'9 8.9
2014-Sep-21 12:33N 39°11' W 076°26'1514.8
2014-Sep-21 11:33N 38°56' W 076°23'2020.0
2014-Sep-21 10:33N 38°36' W 076°26'2019.9
2014-Sep-21 09:33N 38°17' W 076°17'5918.4
2014-Sep-21 06:22N 37°20' W 076°05'1316.1
2014-Sep-21 05:33N 37°06' W 076°07'1515.6
2014-Sep-21 04:33N 36°55' W 075°54'15417.1
2014-Sep-20 19:32N 34°21' W 076°08'  
Track history (hours):
 
Tides and Currents Weather Stations Pressure Air Temp Water Temp Dewpoint Dewpoint Depression Visibility Wind Speed Wind Dir Waves Ship Positions

Carnival Pride

Operator: Carnival Cruise Lines

Last reported at 2014-Sep-29 21:25 UTC. Time now 2014-Oct-01 14:27 UTC.
Position N 33°52' W 076°54'.

Type: Ship. MMSI: 354215000.

Date/timePositionNaut miles runAvg speedWind from/ knotsBaromVisibWave heightAir tempDewpointWater temp
2014-Sep-29 21:25N 33°52' W 076°54'6416.5
2014-Sep-29 17:31N 34°34' W 075°56'10114.5
2014-Sep-29 10:33N 36°11' W 075°20'1716.9
2014-Sep-29 09:33N 36°25' W 075°30'1616.4
2014-Sep-29 08:33N 36°40' W 075°40'1715.7
2014-Sep-29 07:30N 36°52' W 075°53'1414.7
2014-Sep-29 06:33N 37°03' W 076°05'1616.0
2014-Sep-29 05:32N 37°19' W 076°06'1816.4
2014-Sep-29 04:25N 37°37' W 076°06'1517.6
2014-Sep-29 03:33N 37°53' W 076°09'1919.1
2014-Sep-29 02:33N 38°11' W 076°14'1919.4
2014-Sep-29 01:33N 38°29' W 076°24'1817.9
2014-Sep-29 00:33N 38°47' W 076°25'1616.2
2014-Sep-28 23:33N 39°03' W 076°23'1111.1
2014-Sep-28 22:33N 39°12' W 076°31'5 4.9
2014-Sep-28 21:32N 39°16' W 076°36'0 0.0
2014-Sep-28 20:31N 39°16' W 076°36'0 0.0
2014-Sep-28 19:28N 39°16' W 076°36'0 0.0
2014-Sep-28 18:33N 39°16' W 076°36'0 0.0
2014-Sep-28 17:33N 39°16' W 076°36'0 0.0
2014-Sep-28 16:32N 39°16' W 076°36'0 0.0
2014-Sep-28 15:32N 39°16' W 076°36'0 0.0
2014-Sep-28 14:28N 39°16' W 076°36'0 0.0
2014-Sep-28 13:31N 39°16' W 076°36'2 1.7
2014-Sep-28 12:33N 39°15' W 076°34'1111.4
2014-Sep-28 11:33N 39°07' W 076°24'1716.9
2014-Sep-28 10:33N 38°50' W 076°24'4118.9
2014-Sep-28 08:22N 38°10' W 076°14'5118.2
2014-Sep-28 05:34N 37°19' W 076°06'1817.4
2014-Sep-28 04:32N 37°01' W 076°03'1816.6
2014-Sep-28 03:28N 36°50' W 075°46'3820.1
2014-Sep-28 01:33N 36°16' W 075°23'9418.5
2014-Sep-27 20:28N 34°43' W 075°42'2519.8
2014-Sep-27 19:13N 34°25' W 076°03'5319.9
2014-Sep-27 16:33N 33°48' W 076°49'40120.9
2014-Sep-26 21:25N 27°32' W 079°31'2022.8
2014-Sep-26 20:32N 27°14' W 079°22'  
2014-Sep-22 07:27N 36°42' W 075°42'1718.2
2014-Sep-22 06:31N 36°55' W 075°56'1716.3
2014-Sep-22 05:30N 37°08' W 076°09'7717.4
2014-Sep-22 01:05N 38°25' W 076°21'1019.0
2014-Sep-22 00:34N 38°34' W 076°26'1918.6
2014-Sep-21 23:34N 38°52' W 076°24'1515.2
2014-Sep-21 22:33N 39°07' W 076°24'1211.7
2014-Sep-21 21:33N 39°15' W 076°35'1 1.1
2014-Sep-21 20:33N 39°16' W 076°36'0 0.0
2014-Sep-21 19:33N 39°16' W 076°36'0 0.0
2014-Sep-21 18:32N 39°16' W 076°36'0 0.0
2014-Sep-21 17:32N 39°16' W 076°36'0 0.0
2014-Sep-21 16:31N 39°16' W 076°36'0 0.0
2014-Sep-21 15:31N 39°16' W 076°36'0 0.0
2014-Sep-21 14:34N 39°16' W 076°36'0 0.1
2014-Sep-21 13:33N 39°16' W 076°36'9 8.9
2014-Sep-21 12:33N 39°11' W 076°26'1514.8
2014-Sep-21 11:33N 38°56' W 076°23'2020.0
2014-Sep-21 10:33N 38°36' W 076°26'2019.9
2014-Sep-21 09:33N 38°17' W 076°17'5918.4
2014-Sep-21 06:22N 37°20' W 076°05'1316.1
2014-Sep-21 05:33N 37°06' W 076°07'1515.6
2014-Sep-21 04:33N 36°55' W 075°54'15417.1
2014-Sep-20 19:32N 34°21' W 076°08'  

Dump ship's entire track history